Schedule Details


Flight Number: CTN655
Departure: Kastela (LDSP) at 16:20
Arrival: Franjo Tudman (LDZA) at 17:10
Route: SIRMI M725 RUDIK

Weather Information
LDSP 080030Z AUTO 04009KT 9999 SCT075/// 28/14 Q1014
LDZA 080030Z 24001KT CAVOK 19/17 Q1018 NOSIG
Schedule Frequency

Route Map